Time;durP1;ratioP1;P1;durP2;ratioP2;P2;SDS_P1;SDS_P2;PMS_P1;PMS_P2;Temp;Humidity;BMP_temperature;BMP_pressure;BME280_temperature;BME280_humidity;BME280_pressure;Samples;Min_cycle;Max_cycle;Signal;HPM_P1;HPM_P2
2020/08/23 00:00:32;;;;;;;7.2;4.7;;;;;;;;;;;;;
2020/08/23 00:02:57;;;;;;;6.4;4.6;;;;;;;;;;;;;
2020/08/23 00:05:22;;;;;;;5.8;4.3;;;;;;;;;;;;;
2020/08/23 00:07:47;;;;;;;5.3;4.1;;;;;;;;;;;;;
2020/08/23 00:10:12;;;;;;;6.2;4.5;;;;;;;;;;;;;
2020/08/23 00:12:37;;;;;;;5.3;4.5;;;;;;;;;;;;;
2020/08/23 00:15:03;;;;;;;6.6;4.4;;;;;;;;;;;;;
2020/08/23 00:17:28;;;;;;;7.4;5;;;;;;;;;;;;;
2020/08/23 00:19:53;;;;;;;6.8;5;;;;;;;;;;;;;
2020/08/23 00:22:18;;;;;;;6.3;4.6;;;;;;;;;;;;;
2020/08/23 00:24:44;;;;;;;5.9;5.1;;;;;;;;;;;;;
2020/08/23 00:27:09;;;;;;;6.5;4.7;;;;;;;;;;;;;
2020/08/23 00:29:34;;;;;;;8.5;4.6;;;;;;;;;;;;;
2020/08/23 00:31:59;;;;;;;5.5;4.1;;;;;;;;;;;;;
2020/08/23 00:34:24;;;;;;;7.8;4.6;;;;;;;;;;;;;
2020/08/23 00:36:49;;;;;;;7.2;4.8;;;;;;;;;;;;;
2020/08/23 00:39:14;;;;;;;8;5.2;;;;;;;;;;;;;
2020/08/23 00:41:40;;;;;;;6.6;4.8;;;;;;;;;;;;;
2020/08/23 00:44:05;;;;;;;8.1;4.7;;;;;;;;;;;;;
2020/08/23 00:46:30;;;;;;;5;4.5;;;;;;;;;;;;;
2020/08/23 00:48:56;;;;;;;6.1;3.8;;;;;;;;;;;;;
2020/08/23 00:51:20;;;;;;;5.9;4.7;;;;;;;;;;;;;
2020/08/23 00:53:46;;;;;;;7.4;5;;;;;;;;;;;;;
2020/08/23 00:56:11;;;;;;;5.6;4.4;;;;;;;;;;;;;
2020/08/23 00:58:36;;;;;;;6.6;4.2;;;;;;;;;;;;;
2020/08/23 01:01:01;;;;;;;5.1;4.4;;;;;;;;;;;;;
2020/08/23 01:03:26;;;;;;;6;4;;;;;;;;;;;;;
2020/08/23 01:05:51;;;;;;;6.1;4.6;;;;;;;;;;;;;
2020/08/23 01:08:16;;;;;;;9.5;4.2;;;;;;;;;;;;;
2020/08/23 01:10:42;;;;;;;7.8;4.6;;;;;;;;;;;;;
2020/08/23 01:13:07;;;;;;;5.1;3.9;;;;;;;;;;;;;
2020/08/23 01:15:32;;;;;;;5.7;4.3;;;;;;;;;;;;;
2020/08/23 01:17:57;;;;;;;8.2;3.8;;;;;;;;;;;;;
2020/08/23 01:20:23;;;;;;;5.3;4;;;;;;;;;;;;;
2020/08/23 01:22:48;;;;;;;8.6;4.7;;;;;;;;;;;;;
2020/08/23 01:25:13;;;;;;;8.9;4.6;;;;;;;;;;;;;
2020/08/23 01:27:38;;;;;;;7.9;5;;;;;;;;;;;;;
2020/08/23 01:30:03;;;;;;;8;5.2;;;;;;;;;;;;;
2020/08/23 01:32:29;;;;;;;7.4;5.3;;;;;;;;;;;;;
2020/08/23 01:34:56;;;;;;;6.8;5.3;;;;;;;;;;;;;
2020/08/23 01:37:21;;;;;;;8;5;;;;;;;;;;;;;
2020/08/23 01:39:46;;;;;;;7.1;5.2;;;;;;;;;;;;;
2020/08/23 01:42:12;;;;;;;7.2;5.4;;;;;;;;;;;;;
2020/08/23 01:44:37;;;;;;;6.6;5.1;;;;;;;;;;;;;
2020/08/23 01:47:02;;;;;;;7.8;4.9;;;;;;;;;;;;;
2020/08/23 01:49:28;;;;;;;7.8;5.3;;;;;;;;;;;;;
2020/08/23 01:51:54;;;;;;;7;5.6;;;;;;;;;;;;;
2020/08/23 01:54:19;;;;;;;10.2;5.7;;;;;;;;;;;;;
2020/08/23 01:56:46;;;;;;;6.7;5.2;;;;;;;;;;;;;
2020/08/23 01:59:11;;;;;;;7.3;4.9;;;;;;;;;;;;;
2020/08/23 02:01:37;;;;;;;6.1;4.6;;;;;;;;;;;;;
2020/08/23 02:04:02;;;;;;;6.1;4.6;;;;;;;;;;;;;
2020/08/23 02:06:29;;;;;;;5.6;4.3;;;;;;;;;;;;;
2020/08/23 02:08:54;;;;;;;4.8;3.8;;;;;;;;;;;;;
2020/08/23 02:11:19;;;;;;;6;3.9;;;;;;;;;;;;;
2020/08/23 02:13:44;;;;;;;7.5;4.7;;;;;;;;;;;;;
2020/08/23 02:16:09;;;;;;;5.1;4.3;;;;;;;;;;;;;
2020/08/23 02:18:35;;;;;;;7.8;4.1;;;;;;;;;;;;;
2020/08/23 02:21:00;;;;;;;4.3;3.6;;;;;;;;;;;;;
2020/08/23 02:23:25;;;;;;;5.7;3.8;;;;;;;;;;;;;
2020/08/23 02:25:50;;;;;;;4.9;3.7;;;;;;;;;;;;;
2020/08/23 02:28:16;;;;;;;6.3;3.9;;;;;;;;;;;;;
2020/08/23 02:30:41;;;;;;;5;3.4;;;;;;;;;;;;;
2020/08/23 02:33:07;;;;;;;7.7;3.7;;;;;;;;;;;;;
2020/08/23 02:35:33;;;;;;;5.1;3.6;;;;;;;;;;;;;
2020/08/23 02:37:58;;;;;;;4.2;3.4;;;;;;;;;;;;;
2020/08/23 03:51:45;;;;;;;6.8;4.2;;;;;;;;;;;;;
2020/08/23 03:54:10;;;;;;;5.8;3;;;;;;;;;;;;;
2020/08/23 03:56:35;;;;;;;6.8;3.2;;;;;;;;;;;;;
2020/08/23 03:59:00;;;;;;;7;2.8;;;;;;;;;;;;;
2020/08/23 04:02:31;;;;;;;6.2;3.1;;;;;;;16.93;100;960.8304;;;;
2020/08/23 04:04:56;;;;;;;6;2.7;;;;;;;16.96;100;960.8099;;;;
2020/08/23 04:07:21;;;;;;;5.8;2.5;;;;;;;16.92;100;960.7952;;;;
2020/08/23 04:09:46;;;;;;;5.3;2.7;;;;;;;16.91;100;960.7978;;;;
2020/08/23 04:12:12;;;;;;;3.8;2.2;;;;;;;16.93;100;960.7912;;;;
2020/08/23 04:14:37;;;;;;;4.8;2.4;;;;;;;16.97;100;960.8535;;;;
2020/08/23 04:17:02;;;;;;;4.7;2.5;;;;;;;16.92;100;960.7827;;;;
2020/08/23 04:19:28;;;;;;;4.7;2.2;;;;;;;16.92;100;960.7639;;;;
2020/08/23 04:21:53;;;;;;;4.5;2.2;;;;;;;17.06;100;960.7692;;;;
2020/08/23 04:24:18;;;;;;;3.1;2.1;;;;;;;17.06;100;960.8184;;;;
2020/08/23 04:26:44;;;;;;;3.4;1.9;;;;;;;17.11;100;960.8275;;;;
2020/08/23 04:29:09;;;;;;;4.8;2.1;;;;;;;17.08;100;960.835;;;;
2020/08/23 04:31:34;;;;;;;3.1;1.9;;;;;;;17.1;100;960.8166;;;;
2020/08/23 04:33:59;;;;;;;3;2;;;;;;;17.14;100;960.8331;;;;
2020/08/23 04:36:24;;;;;;;3.8;2;;;;;;;17.18;100;960.8444;;;;
2020/08/23 04:38:49;;;;;;;3.9;2.1;;;;;;;17.14;100;960.8567;;;;
2020/08/23 04:41:14;;;;;;;5;2.4;;;;;;;17.13;100;960.8717;;;;
2020/08/23 04:43:39;;;;;;;4.1;2.4;;;;;;;17.17;100;960.8649;;;;
2020/08/23 04:46:04;;;;;;;4.7;2.4;;;;;;;17.18;100;960.8633;;;;
2020/08/23 04:48:32;;;;;;;6.2;2.9;;;;;;;17.13;100;960.8289;;;;
2020/08/23 04:50:57;;;;;;;6.7;2.6;;;;;;;17.1;100;960.7787;;;;
2020/08/23 04:53:22;;;;;;;4;2.5;;;;;;;17.11;100;960.8283;;;;
2020/08/23 04:55:47;;;;;;;7.6;2.9;;;;;;;17.19;100;960.8047;;;;
2020/08/23 04:58:13;;;;;;;4.9;2.3;;;;;;;17.3;100;960.8183;;;;
2020/08/23 05:00:39;;;;;;;3.4;2.4;;;;;;;17.37;100;960.84;;;;
2020/08/23 05:03:04;;;;;;;6.1;2.4;;;;;;;17.35;100;960.8222;;;;
2020/08/23 05:05:31;;;;;;;5.9;2.6;;;;;;;17.35;100;960.8624;;;;
2020/08/23 05:07:56;;;;;;;5.3;2.5;;;;;;;17.4;100;960.9149;;;;
2020/08/23 05:10:21;;;;;;;7.1;2.6;;;;;;;17.43;100;960.9286;;;;
2020/08/23 05:12:46;;;;;;;4.9;2.5;;;;;;;17.42;100;960.928;;;;
2020/08/23 05:15:11;;;;;;;4.7;2.5;;;;;;;17.44;100;960.9403;;;;
2020/08/23 05:17:36;;;;;;;5.8;2.4;;;;;;;17.45;100;960.9172;;;;
2020/08/23 05:20:01;;;;;;;6.7;2.5;;;;;;;17.35;100;960.8918;;;;
2020/08/23 05:22:29;;;;;;;5.3;2.5;;;;;;;17.44;100;960.933;;;;
2020/08/23 05:24:54;;;;;;;4.7;2.5;;;;;;;17.23;100;960.9694;;;;
2020/08/23 05:27:19;;;;;;;6.1;2.6;;;;;;;17.36;100;960.9391;;;;
2020/08/23 05:29:44;;;;;;;6.3;2.3;;;;;;;17.5;100;961.0007;;;;
2020/08/23 05:32:09;;;;;;;4.7;2;;;;;;;17.42;100;960.9799;;;;
2020/08/23 05:34:34;;;;;;;5.2;2.1;;;;;;;17.43;100;961.0119;;;;
2020/08/23 05:36:59;;;;;;;4.8;2;;;;;;;17.57;100;961.0597;;;;
2020/08/23 05:39:24;;;;;;;7.1;2.1;;;;;;;17.53;100;961.0164;;;;
2020/08/23 05:41:49;;;;;;;3.9;2.1;;;;;;;17.55;100;961.007;;;;
2020/08/23 05:44:14;;;;;;;5.9;1.9;;;;;;;17.58;100;961.0333;;;;
2020/08/23 05:46:40;;;;;;;4;1.7;;;;;;;17.66;100;960.9694;;;;
2020/08/23 05:49:05;;;;;;;3.8;1.7;;;;;;;17.77;100;961.0179;;;;
2020/08/23 05:51:30;;;;;;;6.4;1.9;;;;;;;17.8;100;961.0249;;;;
2020/08/23 05:53:55;;;;;;;4.6;1.8;;;;;;;17.86;100;961.0812;;;;
2020/08/23 05:56:20;;;;;;;5.1;1.9;;;;;;;17.9;100;961.0439;;;;
2020/08/23 05:58:45;;;;;;;5.9;2;;;;;;;17.79;100;961.0338;;;;
2020/08/23 06:01:10;;;;;;;6;2.1;;;;;;;17.9;100;960.9788;;;;
2020/08/23 06:03:35;;;;;;;4.1;2.2;;;;;;;17.83;100;961.0089;;;;
2020/08/23 06:06:00;;;;;;;4.2;1.9;;;;;;;17.72;100;960.9872;;;;
2020/08/23 06:08:25;;;;;;;4.4;1.9;;;;;;;17.56;100;961.0483;;;;
2020/08/23 06:10:51;;;;;;;5.1;1.9;;;;;;;17.67;100;960.9856;;;;
2020/08/23 06:13:16;;;;;;;5.1;1.7;;;;;;;17.82;100;961.0691;;;;
2020/08/23 06:15:41;;;;;;;4.4;1.9;;;;;;;17.76;100;961.065;;;;
2020/08/23 06:18:06;;;;;;;4.6;2;;;;;;;17.78;100;961.0432;;;;
2020/08/23 06:20:31;;;;;;;6;2;;;;;;;17.86;100;961.0609;;;;
2020/08/23 06:22:56;;;;;;;6.1;2;;;;;;;17.94;100;961.0461;;;;
2020/08/23 06:25:24;;;;;;;4.3;1.7;;;;;;;17.74;100;961.0333;;;;
2020/08/23 06:27:49;;;;;;;5.6;1.9;;;;;;;17.81;100;961.0659;;;;
2020/08/23 06:30:14;;;;;;;3.7;1.6;;;;;;;17.86;100;961.0798;;;;
2020/08/23 06:32:39;;;;;;;4.6;1.7;;;;;;;17.89;100;961.1106;;;;
2020/08/23 06:35:04;;;;;;;4;1.7;;;;;;;17.83;100;961.0963;;;;
2020/08/23 06:37:29;;;;;;;5.7;1.7;;;;;;;17.84;100;961.0378;;;;
2020/08/23 06:39:54;;;;;;;3.3;1.7;;;;;;;17.88;100;961.0637;;;;
2020/08/23 06:42:19;;;;;;;3;1.5;;;;;;;17.93;100;961.0974;;;;
2020/08/23 06:44:45;;;;;;;4.6;1.7;;;;;;;17.95;100;961.0652;;;;
2020/08/23 06:47:10;;;;;;;5;1.7;;;;;;;18.09;100;961.0903;;;;
2020/08/23 06:49:35;;;;;;;4.2;1.5;;;;;;;18.22;100;961.0687;;;;
2020/08/23 06:52:00;;;;;;;4;1.6;;;;;;;18.31;100;961.0545;;;;
2020/08/23 06:54:25;;;;;;;3.7;1.4;;;;;;;18.41;100;961.1191;;;;
2020/08/23 06:56:50;;;;;;;4.4;1.3;;;;;;;18.52;100;961.0611;;;;
2020/08/23 06:59:19;;;;;;;2.9;1.4;;;;;;;18.61;100;961.08;;;;
2020/08/23 07:01:47;;;;;;;5.1;1.5;;;;;;;18.5;100;961.11;;;;
2020/08/23 07:04:13;;;;;;;6.1;1.5;;;;;;;18.65;100;961.1018;;;;
2020/08/23 07:06:38;;;;;;;4.4;1.4;;;;;;;18.75;100;961.0911;;;;
2020/08/23 07:09:05;;;;;;;7.3;1.7;;;;;;;18.81;100;961.1086;;;;
2020/08/23 07:11:31;;;;;;;5.3;1.6;;;;;;;18.71;100;961.1599;;;;
2020/08/23 07:13:56;;;;;;;3.7;1.3;;;;;;;18.93;100;961.1428;;;;
2020/08/23 07:16:24;;;;;;;3.8;1.3;;;;;;;18.91;100;961.1499;;;;
2020/08/23 07:18:49;;;;;;;4.6;1.6;;;;;;;18.94;100;961.1833;;;;
2020/08/23 07:21:15;;;;;;;4.1;1.5;;;;;;;19.03;100;961.2238;;;;
2020/08/23 07:23:40;;;;;;;3.9;1.4;;;;;;;18.9;100;961.2333;;;;
2020/08/23 07:26:05;;;;;;;4;1.4;;;;;;;19.08;100;961.2104;;;;
2020/08/23 07:28:30;;;;;;;4.2;1.3;;;;;;;19.19;100;961.1357;;;;
2020/08/23 07:30:56;;;;;;;5.6;1.5;;;;;;;19.46;100;961.153;;;;
2020/08/23 07:33:20;;;;;;;5.2;1.4;;;;;;;19.48;100;961.1364;;;;
2020/08/23 07:35:49;;;;;;;5.1;1.3;;;;;;;19.66;100;961.0921;;;;
2020/08/23 07:38:17;;;;;;;5.7;1.5;;;;;;;19.83;100;961.115;;;;
2020/08/23 07:40:42;;;;;;;2.3;1.1;;;;;;;19.96;100;961.0927;;;;
2020/08/23 07:43:07;;;;;;;4.4;1.6;;;;;;;19.89;100;961.067;;;;
2020/08/23 07:45:33;;;;;;;3.6;1.1;;;;;;;20.01;98.65625;961.105;;;;
2020/08/23 07:47:58;;;;;;;4;1.3;;;;;;;19.95;97.59766;961.0959;;;;
2020/08/23 07:50:25;;;;;;;4.6;1.3;;;;;;;20.08;96.44922;961.1272;;;;
2020/08/23 07:52:50;;;;;;;4.8;1.3;;;;;;;19.92;96.61426;961.1485;;;;
2020/08/23 07:55:15;;;;;;;5;1.6;;;;;;;20.08;97.22754;961.1859;;;;
2020/08/23 07:57:40;;;;;;;4.8;1.3;;;;;;;20.2;95.74707;961.1758;;;;
2020/08/23 08:00:05;;;;;;;5.2;1.1;;;;;;;20.25;94.79395;961.1278;;;;
2020/08/23 08:02:33;;;;;;;5.9;1.6;;;;;;;20.21;98.84375;961.1639;;;;
2020/08/23 08:04:59;;;;;;;4.9;1.3;;;;;;;19.76;97.69727;961.0814;;;;
2020/08/23 08:07:24;;;;;;;4.5;1.3;;;;;;;19.85;98.7041;961.0974;;;;
2020/08/23 08:09:49;;;;;;;5;1.2;;;;;;;19.98;100;961.1187;;;;
2020/08/23 08:12:14;;;;;;;3.4;1.4;;;;;;;19.95;99.79688;961.1248;;;;
2020/08/23 08:14:39;;;;;;;6.2;1.4;;;;;;;19.89;100;961.1473;;;;
2020/08/23 08:17:04;;;;;;;4.5;1.4;;;;;;;19.82;100;961.1079;;;;
2020/08/23 08:19:29;;;;;;;4.9;1.2;;;;;;;19.75;100;961.1825;;;;
2020/08/23 08:21:54;;;;;;;3.2;1.4;;;;;;;19.71;100;961.1448;;;;
2020/08/23 08:24:19;;;;;;;5.7;1.7;;;;;;;19.76;100;961.1831;;;;
2020/08/23 08:26:45;;;;;;;5;1.5;;;;;;;19.87;100;961.1469;;;;
2020/08/23 08:29:10;;;;;;;5.9;1.5;;;;;;;19.94;100;961.1649;;;;
2020/08/23 08:31:35;;;;;;;4.9;1.4;;;;;;;19.98;100;961.2908;;;;
2020/08/23 08:34:00;;;;;;;5.5;1.3;;;;;;;20.01;100;961.2317;;;;
2020/08/23 08:36:29;;;;;;;4.9;1.2;;;;;;;20.14;100;961.2734;;;;
2020/08/23 08:38:54;;;;;;;3.3;1.3;;;;;;;20.22;100;961.2985;;;;
2020/08/23 08:41:19;;;;;;;4.3;1.2;;;;;;;20.28;100;961.3036;;;;
2020/08/23 08:43:44;;;;;;;4.1;1.2;;;;;;;20.25;100;961.2875;;;;
2020/08/23 08:46:09;;;;;;;4.5;1.3;;;;;;;20.37;100;961.3013;;;;
2020/08/23 08:48:34;;;;;;;4.4;1.2;;;;;;;20.39;97.63574;961.2952;;;;
2020/08/23 08:50:59;;;;;;;3.4;1.3;;;;;;;20.42;91.26367;961.3193;;;;
2020/08/23 08:53:24;;;;;;;4.2;1.2;;;;;;;20.55;91.48926;961.2919;;;;
2020/08/23 08:55:50;;;;;;;6.6;1.4;;;;;;;20.55;89.40332;961.2777;;;;
2020/08/23 08:58:16;;;;;;;2.6;1.2;;;;;;;20.69;88.38574;961.2668;;;;
2020/08/23 09:00:42;;;;;;;4.6;1.5;;;;;;;20.88;88.49414;961.19;;;;
2020/08/23 09:03:07;;;;;;;6.5;1.4;;;;;;;20.91;86.50781;961.1949;;;;
2020/08/23 09:05:42;;;;;;;4.7;1.4;;;;;;;21.05;85.35742;961.1392;;;;
2020/08/23 09:08:07;;;;;;;4.4;1.4;;;;;;;21.07;84.67871;961.1314;;;;
2020/08/23 09:10:47;;;;;;;6.3;1.1;;;;;;;21.2;86.22266;961.1323;;;;
2020/08/23 09:13:20;;;;;;;5.9;1.4;;;;;;;21.09;83.69238;961.1758;;;;
2020/08/23 09:15:51;;;;;;;3.8;1.3;;;;;;;21.28;84.84668;961.1183;;;;
2020/08/23 09:18:21;;;;;;;4.5;1.5;;;;;;;21.44;81.11523;961.1108;;;;
2020/08/23 09:20:46;;;;;;;4.7;1.4;;;;;;;21.56;79.88574;961.0801;;;;
2020/08/23 09:23:11;;;;;;;6.3;1.5;;;;;;;21.5;80.47754;961.1096;;;;
2020/08/23 09:25:36;;;;;;;3.5;1;;;;;;;21.41;78.57227;961.0686;;;;
2020/08/23 09:28:03;;;;;;;4.8;1.4;;;;;;;21.49;79.04688;961.0187;;;;
2020/08/23 09:30:33;;;;;;;3.6;1.1;;;;;;;21.54;78.73535;961.0167;;;;
2020/08/23 09:32:58;;;;;;;5;1.7;;;;;;;21.59;78.92383;961.0818;;;;
2020/08/23 09:35:23;;;;;;;4.8;1.5;;;;;;;21.61;77.00293;961.0567;;;;
2020/08/23 09:37:48;;;;;;;4.1;1.2;;;;;;;21.41;75.41016;961.0651;;;;
2020/08/23 09:40:13;;;;;;;5.7;1.3;;;;;;;21.32;76.66895;961.0525;;;;
2020/08/23 09:42:38;;;;;;;3.1;1;;;;;;;21.45;77.5752;961.0337;;;;
2020/08/23 09:45:04;;;;;;;4.6;1.3;;;;;;;21.59;77.01172;961.0488;;;;
2020/08/23 09:47:29;;;;;;;5;1.2;;;;;;;21.75;76.81445;961.0555;;;;
2020/08/23 09:49:54;;;;;;;4.4;1.4;;;;;;;21.7;76.9248;961.1044;;;;
2020/08/23 09:52:19;;;;;;;5.2;1.1;;;;;;;21.75;78.45508;961.1136;;;;
2020/08/23 09:54:44;;;;;;;5.7;1.4;;;;;;;21.81;79.41113;961.0807;;;;
2020/08/23 09:57:09;;;;;;;3.6;1.2;;;;;;;21.78;72.60352;961.0864;;;;
2020/08/23 09:59:34;;;;;;;4.2;1.4;;;;;;;21.68;74.38281;961.0734;;;;
2020/08/23 10:01:59;;;;;;;4.5;1.4;;;;;;;21.88;75.2666;961.088;;;;
2020/08/23 10:04:24;;;;;;;4.4;1.2;;;;;;;21.86;75.43945;961.0711;;;;
2020/08/23 10:06:49;;;;;;;3.7;1.2;;;;;;;21.95;73.04492;961.113;;;;
2020/08/23 10:09:15;;;;;;;4.4;1.2;;;;;;;21.94;72.0293;961.163;;;;
2020/08/23 10:11:40;;;;;;;4.3;1.2;;;;;;;21.98;70.95996;961.0748;;;;
2020/08/23 10:14:05;;;;;;;5.5;1.5;;;;;;;22.03;71.08496;961.0616;;;;
2020/08/23 10:16:32;;;;;;;4.4;1.1;;;;;;;21.88;70.8125;961.0756;;;;
2020/08/23 10:18:57;;;;;;;3.8;1.4;;;;;;;22.02;69.84473;961.0276;;;;
2020/08/23 10:21:22;;;;;;;4.6;1.3;;;;;;;22.08;72.07422;961.0322;;;;
2020/08/23 10:23:48;;;;;;;5.8;1.4;;;;;;;22.2;70.28613;961.0303;;;;
2020/08/23 10:26:13;;;;;;;6.5;1.3;;;;;;;22.25;70.50586;961.0364;;;;
2020/08/23 10:28:38;;;;;;;6;1.3;;;;;;;22.29;69.10645;960.9832;;;;
2020/08/23 10:31:03;;;;;;;4.1;1.2;;;;;;;22.4;68.87402;960.929;;;;
2020/08/23 10:33:28;;;;;;;7.6;1.4;;;;;;;22.38;68.26758;960.9437;;;;
2020/08/23 10:35:53;;;;;;;5.7;1.6;;;;;;;22.4;67.4668;960.9191;;;;
2020/08/23 10:38:18;;;;;;;5.9;1.2;;;;;;;22.46;67.54883;960.8757;;;;
2020/08/23 10:40:43;;;;;;;3.7;1.2;;;;;;;22.23;67.50098;960.9458;;;;
2020/08/23 10:43:09;;;;;;;4.1;1.5;;;;;;;22.23;67.44238;960.9258;;;;
2020/08/23 10:45:38;;;;;;;6.7;1.2;;;;;;;22.22;68.125;960.9517;;;;
2020/08/23 10:48:03;;;;;;;5.4;1.6;;;;;;;22.08;70.33789;960.9042;;;;
2020/08/23 10:50:28;;;;;;;4.2;1.3;;;;;;;22.14;71.55273;960.8704;;;;
2020/08/23 10:52:53;;;;;;;4.9;1.4;;;;;;;22.18;72.03125;960.8631;;;;
2020/08/23 10:55:19;;;;;;;6.5;1.4;;;;;;;22.38;72.18164;960.9264;;;;
2020/08/23 10:57:45;;;;;;;4.5;1.3;;;;;;;22.3;71.55371;960.9348;;;;
2020/08/23 11:00:14;;;;;;;4.7;1.3;;;;;;;22.17;71.9707;960.968;;;;
2020/08/23 11:02:35;;;;;;;4.3;1.1;;;;;;;22.08;74.12988;960.9324;;;;
2020/08/23 11:05:04;;;;;;;4.9;1.6;;;;;;;22.06;74.16309;960.868;;;;
2020/08/23 11:07:30;;;;;;;4.6;1.4;;;;;;;21.89;76.53223;960.8811;;;;
2020/08/23 11:09:55;;;;;;;4.2;1.3;;;;;;;21.83;76.43848;960.9008;;;;
2020/08/23 11:12:20;;;;;;;6.5;1.4;;;;;;;21.76;75.80176;960.9114;;;;
2020/08/23 11:14:45;;;;;;;7.6;1.5;;;;;;;21.63;74.77539;960.9186;;;;
2020/08/23 11:17:13;;;;;;;5.3;1.5;;;;;;;21.51;75.88672;960.918;;;;
2020/08/23 11:19:40;;;;;;;5.9;1.4;;;;;;;21.51;74.41406;960.9155;;;;
2020/08/23 11:22:05;;;;;;;6.4;1.6;;;;;;;21.61;73.82715;960.9141;;;;
2020/08/23 11:24:30;;;;;;;6.6;1.5;;;;;;;21.66;75.96094;960.8733;;;;
2020/08/23 11:26:55;;;;;;;3.4;1.1;;;;;;;21.77;74.89258;960.8641;;;;
2020/08/23 11:29:20;;;;;;;5.2;1.5;;;;;;;21.89;75.97656;960.7972;;;;
2020/08/23 11:31:47;;;;;;;3.8;1.4;;;;;;;22.29;76.44629;960.8578;;;;
2020/08/23 11:34:12;;;;;;;5.7;1.3;;;;;;;22.2;74.73047;960.8708;;;;
2020/08/23 11:36:37;;;;;;;5;1.5;;;;;;;22.27;72.9541;960.8817;;;;
2020/08/23 11:39:03;;;;;;;7.9;1.5;;;;;;;22.11;72.48047;960.9136;;;;
2020/08/23 11:41:28;;;;;;;3.3;1.1;;;;;;;22.21;71.20801;960.9378;;;;
2020/08/23 11:43:53;;;;;;;5;1.4;;;;;;;22.2;67.49609;960.9498;;;;
2020/08/23 11:46:18;;;;;;;4.9;1.3;;;;;;;22.15;68.62305;960.9191;;;;
2020/08/23 11:48:43;;;;;;;6.2;1.5;;;;;;;22.04;67.73145;960.8494;;;;
2020/08/23 11:51:08;;;;;;;7.2;1.6;;;;;;;22.2;67.63867;960.8792;;;;
2020/08/23 11:53:33;;;;;;;4.1;1.1;;;;;;;22.31;69.14453;960.8148;;;;
2020/08/23 11:55:58;;;;;;;5.5;1.3;;;;;;;22.57;65.96777;960.7827;;;;
2020/08/23 11:58:23;;;;;;;5.2;1.1;;;;;;;22.58;66.26367;960.7798;;;;
2020/08/23 12:00:49;;;;;;;5.1;1.3;;;;;;;22.63;66.34375;960.731;;;;
2020/08/23 12:03:14;;;;;;;4.7;1.2;;;;;;;22.84;65.47363;960.7238;;;;
2020/08/23 12:05:39;;;;;;;4.7;1.1;;;;;;;23.12;65.11328;960.7469;;;;
2020/08/23 12:08:04;;;;;;;4.8;1.4;;;;;;;23.06;65.51855;960.6464;;;;
2020/08/23 12:10:29;;;;;;;4.9;1.4;;;;;;;23.03;61.28809;960.6697;;;;
2020/08/23 12:12:59;;;;;;;3.1;1.2;;;;;;;22.86;58.7666;960.6451;;;;
2020/08/23 12:15:35;;;;;;;3;1.1;;;;;;;22.84;57.97168;960.6339;;;;
2020/08/23 12:18:00;;;;;;;3.2;1.2;;;;;;;22.94;58.41016;960.6062;;;;
2020/08/23 12:20:25;;;;;;;5.1;1.4;;;;;;;22.97;58.7334;960.5151;;;;
2020/08/23 12:22:50;;;;;;;3.5;1.2;;;;;;;23.06;59.23047;960.5334;;;;
2020/08/23 12:25:17;;;;;;;3.5;1.2;;;;;;;23.04;58.19824;960.5009;;;;
2020/08/23 12:27:42;;;;;;;3.6;1.1;;;;;;;22.99;58.74902;960.4462;;;;
2020/08/23 12:30:07;;;;;;;3.8;1.2;;;;;;;23;59.54297;960.4617;;;;
2020/08/23 12:32:32;;;;;;;6.4;1.4;;;;;;;23.09;61.23535;960.4187;;;;
2020/08/23 12:34:57;;;;;;;4.5;0.9;;;;;;;23.25;58.08398;960.4247;;;;
2020/08/23 12:37:22;;;;;;;3;1;;;;;;;23.44;58.28516;960.4648;;;;
2020/08/23 12:39:47;;;;;;;4.3;1.2;;;;;;;23.58;55.0332;960.4773;;;;
2020/08/23 12:42:12;;;;;;;2.7;0.9;;;;;;;23.44;55.62012;960.4347;;;;
2020/08/23 12:44:37;;;;;;;3.1;1.1;;;;;;;23.34;56.98242;960.4562;;;;
2020/08/23 12:47:03;;;;;;;3.7;1.1;;;;;;;23.26;56.25977;960.4604;;;;
2020/08/23 12:49:28;;;;;;;4.8;1.2;;;;;;;23.25;56.84082;960.4099;;;;
2020/08/23 12:51:53;;;;;;;3.1;1;;;;;;;23.33;56.80176;960.4241;;;;
2020/08/23 12:54:18;;;;;;;4.8;1.1;;;;;;;23.42;56.58984;960.3674;;;;
2020/08/23 12:56:43;;;;;;;3.5;1.3;;;;;;;23.61;56.95605;960.2844;;;;
2020/08/23 12:59:08;;;;;;;3.1;1;;;;;;;23.23;57.51172;960.2483;;;;
2020/08/23 13:01:33;;;;;;;3.2;1;;;;;;;23.1;58.54883;960.2662;;;;
2020/08/23 13:03:58;;;;;;;2.8;1.1;;;;;;;23.17;58.5;960.3149;;;;
2020/08/23 13:06:24;;;;;;;3.5;1;;;;;;;23.09;58.08594;960.3705;;;;
2020/08/23 13:08:49;;;;;;;3.1;1.1;;;;;;;23.24;59.23242;960.2834;;;;
2020/08/23 13:11:15;;;;;;;3.3;1;;;;;;;23.3;59.47656;960.2296;;;;
2020/08/23 13:13:40;;;;;;;2.7;1;;;;;;;23.55;58.34668;960.1522;;;;
2020/08/23 13:16:05;;;;;;;4.4;1.4;;;;;;;23.9;58.84473;960.1838;;;;
2020/08/23 13:18:30;;;;;;;3.6;1.2;;;;;;;24.05;58.4375;960.1847;;;;
2020/08/23 13:20:56;;;;;;;5.1;1.2;;;;;;;23.57;59.0498;960.1072;;;;
2020/08/23 13:23:21;;;;;;;3;1;;;;;;;23.59;60.17871;960.1092;;;;
2020/08/23 13:25:46;;;;;;;4.2;1.2;;;;;;;23.29;58.92969;960.1292;;;;
2020/08/23 13:28:11;;;;;;;3.8;1.1;;;;;;;23.25;60.19336;960.2135;;;;
2020/08/23 13:30:36;;;;;;;4.9;1.3;;;;;;;22.79;62.03516;960.287;;;;
2020/08/23 13:33:01;;;;;;;3.1;1.4;;;;;;;22.31;65.2793;960.206;;;;
2020/08/23 13:35:26;;;;;;;5.3;1.2;;;;;;;22.16;67.46582;960.1897;;;;
2020/08/23 13:37:51;;;;;;;4.6;1.2;;;;;;;21.78;68.95605;960.3221;;;;
2020/08/23 13:40:16;;;;;;;5;1.3;;;;;;;21.69;70.51074;960.383;;;;
2020/08/23 13:42:41;;;;;;;3.7;1.3;;;;;;;21.49;68.56641;960.3164;;;;
2020/08/23 13:45:06;;;;;;;5.2;1.4;;;;;;;21.72;68.95801;960.2927;;;;
2020/08/23 13:47:32;;;;;;;4.6;1.5;;;;;;;21.91;67.81738;960.3431;;;;
2020/08/23 13:49:57;;;;;;;3.7;1.1;;;;;;;22;63.66211;960.2344;;;;
2020/08/23 13:52:22;;;;;;;3.4;1.1;;;;;;;22.27;63.59277;960.2224;;;;
2020/08/23 13:54:47;;;;;;;6.6;1.2;;;;;;;22.28;63.52539;960.1885;;;;
2020/08/23 13:57:15;;;;;;;3.7;1.4;;;;;;;22.22;61.50586;960.1978;;;;
2020/08/23 13:59:40;;;;;;;3.6;1.1;;;;;;;22.35;61.93848;960.152;;;;
2020/08/23 14:02:05;;;;;;;3.2;1.2;;;;;;;22.49;61.66309;960.1331;;;;
2020/08/23 14:04:32;;;;;;;4;1.2;;;;;;;22.53;61.4209;960.1347;;;;
2020/08/23 14:06:57;;;;;;;2.9;1.1;;;;;;;22.4;61.95801;960.1072;;;;
2020/08/23 14:09:22;;;;;;;3.1;1;;;;;;;22.3;62.64063;960.0528;;;;
2020/08/23 14:11:49;;;;;;;3.5;1.2;;;;;;;22.37;62.09473;960.0676;;;;
2020/08/23 14:16:41;;;;;;;3.5;0.9;;;;;;;22.73;62.60742;960.1057;;;;
2020/08/23 14:19:06;;;;;;;4.7;1.2;;;;;;;23.03;60.51758;960.125;;;;
2020/08/23 14:21:31;;;;;;;5.3;1.2;;;;;;;23.06;61.38574;960.0637;;;;
2020/08/23 14:24:00;;;;;;;2.8;1;;;;;;;23.18;59.21094;960.0284;;;;
2020/08/23 14:26:25;;;;;;;4.2;1.3;;;;;;;23.38;59.80664;959.9983;;;;
2020/08/23 14:28:50;;;;;;;3.1;1;;;;;;;23.51;59.82422;960.0002;;;;
2020/08/23 14:31:18;;;;;;;3.9;1.2;;;;;;;23.56;58.92969;960.0187;;;;
2020/08/23 14:33:43;;;;;;;3.8;1;;;;;;;23.37;58.08789;960.0386;;;;
2020/08/23 14:36:08;;;;;;;3.9;1.3;;;;;;;23.48;58.09082;959.9787;;;;
2020/08/23 14:38:33;;;;;;;4.2;1.3;;;;;;;23.43;59.02051;959.9685;;;;
2020/08/23 14:40:58;;;;;;;3;1;;;;;;;23.27;56.98438;959.9634;;;;
2020/08/23 14:43:26;;;;;;;2.9;1;;;;;;;23.41;56.83594;959.9476;;;;
2020/08/23 14:45:51;;;;;;;4;0.9;;;;;;;23.39;56.86816;959.9498;;;;
2020/08/23 14:48:21;;;;;;;3.6;1.3;;;;;;;23.48;57.01074;959.8711;;;;
2020/08/23 14:50:46;;;;;;;3.4;1.1;;;;;;;23.34;55.52441;959.903;;;;
2020/08/23 14:53:11;;;;;;;3.2;1;;;;;;;23.58;56.09863;959.8424;;;;
2020/08/23 14:55:36;;;;;;;4.6;1.2;;;;;;;23.88;54.2627;959.9286;;;;
2020/08/23 14:58:02;;;;;;;2.5;1;;;;;;;24.39;55.18066;959.9658;;;;
2020/08/23 15:00:28;;;;;;;2.7;1.2;;;;;;;24.04;52.59766;959.9473;;;;
2020/08/23 15:02:56;;;;;;;4;1.2;;;;;;;23.95;52.16016;959.9205;;;;
2020/08/23 15:05:21;;;;;;;5;0.9;;;;;;;23.89;51.66504;959.8894;;;;
2020/08/23 15:07:48;;;;;;;3.5;1.2;;;;;;;23.49;53.44434;959.9252;;;;
2020/08/23 15:10:13;;;;;;;2.2;1;;;;;;;23.73;52.02539;959.8872;;;;
2020/08/23 15:12:38;;;;;;;2.8;1;;;;;;;23.63;52.0498;959.8724;;;;
2020/08/23 15:15:04;;;;;;;3.2;1.1;;;;;;;23.62;52.00098;959.8486;;;;
2020/08/23 15:17:29;;;;;;;2.5;1;;;;;;;23.37;52.64844;959.8173;;;;
2020/08/23 15:19:54;;;;;;;2.6;1.1;;;;;;;23.38;53.25391;959.8176;;;;
2020/08/23 15:22:20;;;;;;;2.6;1;;;;;;;23.43;53.69922;959.7964;;;;
2020/08/23 15:24:45;;;;;;;3.3;1.1;;;;;;;23.25;52.93066;959.8361;;;;
2020/08/23 15:27:11;;;;;;;3.2;0.9;;;;;;;23.16;52.88477;959.8503;;;;
2020/08/23 15:29:37;;;;;;;2.4;1.1;;;;;;;23.12;53.75586;959.887;;;;
2020/08/23 15:32:02;;;;;;;3.4;1;;;;;;;23.17;52.36426;959.8699;;;;
2020/08/23 15:34:27;;;;;;;2.2;1;;;;;;;23.14;55.01465;959.9074;;;;
2020/08/23 15:36:55;;;;;;;2.6;1;;;;;;;23.07;52.24512;959.907;;;;
2020/08/23 15:39:20;;;;;;;2.9;0.9;;;;;;;23.01;53.00879;959.937;;;;
2020/08/23 15:41:46;;;;;;;2.2;0.9;;;;;;;23.08;53.5625;959.915;;;;
2020/08/23 15:44:11;;;;;;;4.2;1;;;;;;;23.02;53.47168;959.9142;;;;
2020/08/23 15:46:36;;;;;;;1.7;1;;;;;;;22.78;52.8623;959.8994;;;;
2020/08/23 15:49:01;;;;;;;4.4;1.1;;;;;;;22.67;53.22852;959.8475;;;;
2020/08/23 15:51:26;;;;;;;3.5;1.1;;;;;;;22.61;53.97656;959.7969;;;;
2020/08/23 15:53:51;;;;;;;3.3;1.2;;;;;;;22.53;54.13379;959.7892;;;;
2020/08/23 15:56:16;;;;;;;4.6;0.9;;;;;;;22.43;54.16895;959.8499;;;;
2020/08/23 15:58:41;;;;;;;2;0.8;;;;;;;22.28;53.59473;959.7908;;;;
2020/08/23 16:01:06;;;;;;;2;1;;;;;;;22.45;54.08887;959.7424;;;;
2020/08/23 16:03:34;;;;;;;3.7;1;;;;;;;22.58;54.28125;959.6889;;;;
2020/08/23 16:05:59;;;;;;;2.6;0.9;;;;;;;22.6;53.58691;959.7107;;;;
2020/08/23 16:08:24;;;;;;;2.4;0.7;;;;;;;22.6;54.5332;959.645;;;;
2020/08/23 16:10:50;;;;;;;2.9;1;;;;;;;22.67;54.60156;959.6598;;;;
2020/08/23 16:13:15;;;;;;;4.2;1.1;;;;;;;22.63;53.51855;959.6526;;;;
2020/08/23 16:15:40;;;;;;;2.8;0.8;;;;;;;22.53;54.33398;959.6108;;;;
2020/08/23 16:18:05;;;;;;;2;0.9;;;;;;;22.4;54.07129;959.5906;;;;
2020/08/23 16:20:30;;;;;;;3;1.3;;;;;;;22.28;54.84863;959.5831;;;;
2020/08/23 16:22:55;;;;;;;2.8;1.1;;;;;;;22.24;54.72461;959.6259;;;;
2020/08/23 16:25:20;;;;;;;3.6;1.2;;;;;;;22.24;54.70215;959.5703;;;;
2020/08/23 16:27:45;;;;;;;2.6;1;;;;;;;22.32;54.8877;959.5989;;;;
2020/08/23 16:30:14;;;;;;;2;1.1;;;;;;;22.25;55.60156;959.5706;;;;
2020/08/23 16:32:39;;;;;;;4.1;1.4;;;;;;;22.18;54.62305;959.5628;;;;
2020/08/23 16:35:09;;;;;;;4.2;1;;;;;;;22.17;55.03418;959.5998;;;;
2020/08/23 16:37:34;;;;;;;2.4;1;;;;;;;22.1;55.7373;959.5137;;;;
2020/08/23 16:39:59;;;;;;;2.4;1;;;;;;;22.1;55.22852;959.5751;;;;
2020/08/23 16:42:24;;;;;;;2.3;1;;;;;;;22.1;55.57031;959.5471;;;;